Terminal Aerodrome Forecast
Issued by NWS Twin Cities, MN

Home | Current Version | Previous Version | Graphics & Text | Print | Product List | Glossary On
Versions: 1 2 3 4 5 6 7 8 9 10 11 12 13 14 15
128
FTUS43 KMPX 192339
TAFEAU
TAF
KEAU 192339Z 2000/2024 13008KT P6SM FEW200
     FM200500 14009KT P6SM SCT140 WS020/16040KT
     FM200700 14012G19KT P6SM BKN080
     FM200900 15014KT 6SM -RA BR VCTS SCT040 OVC080CB WS020/16040KT
      TEMPO 2009/2012 3SM TSRA BR OVC030CB
     FM201200 16012KT P6SM VCSH OVC015
     FM201500 23007KT P6SM BKN020
     FM202000 27007KT P6SM BKN070=

USA.gov is the U.S. government's official web portal to all federal, state and local government web resources and services.